createdAt,value
2019-05-02T00:01:55.034Z,84.90
2019-05-02T00:05:00.940Z,84.90
2019-05-02T00:08:05.435Z,84.80
2019-05-02T00:11:11.528Z,84.60
2019-05-02T00:14:15.893Z,84.70
2019-05-02T00:17:25.565Z,85.10
2019-05-02T00:20:27.196Z,85.00
2019-05-02T00:23:31.582Z,84.80
2019-05-02T00:26:35.988Z,84.80
2019-05-02T00:29:40.571Z,84.80
2019-05-02T00:32:44.904Z,85.00
2019-05-02T00:35:49.416Z,84.80
2019-05-02T00:38:53.794Z,84.60
2019-05-02T00:42:11.803Z,84.60
2019-05-02T00:45:04.573Z,84.60
2019-05-02T00:48:23.263Z,84.60
2019-05-02T00:51:28.063Z,84.70
2019-05-02T00:54:32.578Z,84.60
2019-05-02T00:57:36.882Z,84.50
2019-05-02T01:00:57.636Z,84.60
2019-05-02T01:04:06.325Z,84.50
2019-05-02T01:07:11.046Z,84.60
2019-05-02T01:10:17.295Z,84.60
2019-05-02T01:13:21.573Z,85.10
2019-05-02T01:16:25.930Z,84.70
2019-05-02T01:19:30.322Z,84.80
2019-05-02T01:22:34.619Z,85.10
2019-05-02T01:25:39.079Z,85.50
2019-05-02T01:29:08.193Z,85.90
2019-05-02T01:32:31.528Z,86.10
2019-05-02T01:36:06.520Z,86.60
2019-05-02T01:39:11.916Z,87.50
2019-05-02T01:42:16.240Z,88.10
2019-05-02T01:45:20.662Z,87.40
2019-05-02T01:48:24.956Z,87.20
2019-05-02T01:51:29.316Z,87.30
2019-05-02T01:54:33.519Z,87.40
2019-05-02T01:57:39.930Z,87.20
2019-05-02T02:00:44.766Z,87.30
2019-05-02T02:03:49.987Z,87.50
2019-05-02T02:06:54.278Z,87.90
2019-05-02T02:09:58.695Z,88.40
2019-05-02T02:13:05.082Z,88.30
2019-05-02T02:16:09.375Z,88.50
2019-05-02T02:19:28.224Z,88.30
2019-05-02T02:23:00.675Z,88.80
2019-05-02T02:26:12.194Z,88.20
2019-05-02T02:29:14.182Z,88.90
2019-05-02T02:32:20.120Z,88.50
2019-05-02T02:35:24.582Z,88.50
2019-05-02T02:38:33.701Z,88.40
2019-05-02T02:41:34.948Z,88.10
2019-05-02T02:44:56.177Z,88.30
2019-05-02T02:48:02.563Z,88.20
2019-05-02T02:51:06.611Z,88.60
2019-05-02T02:54:11.004Z,88.60
2019-05-02T02:57:25.689Z,88.50
2019-05-02T03:00:21.670Z,88.40
2019-05-02T03:03:27.768Z,88.40
2019-05-02T03:06:32.327Z,88.40
2019-05-02T03:09:36.660Z,89.00
2019-05-02T03:13:00.071Z,88.90
2019-05-02T03:16:07.101Z,88.60
2019-05-02T03:19:14.650Z,88.70
2019-05-02T03:22:18.424Z,88.60
2019-05-02T03:25:26.912Z,88.60
2019-05-02T03:28:28.826Z,88.90
2019-05-02T03:31:33.470Z,89.00
2019-05-02T03:34:47.163Z,88.80
2019-05-02T03:37:44.723Z,88.90
2019-05-02T03:40:50.312Z,89.10
2019-05-02T03:44:09.737Z,88.90
2019-05-02T03:47:04.652Z,89.00
2019-05-02T03:50:09.216Z,88.70
2019-05-02T03:53:17.504Z,88.50
2019-05-02T03:56:19.764Z,88.50
2019-05-02T03:59:37.092Z,88.50
2019-05-02T04:02:30.895Z,88.40
2019-05-02T04:05:40.563Z,88.50
2019-05-02T04:08:43.085Z,88.20
2019-05-02T04:11:48.265Z,88.40
2019-05-02T04:14:55.448Z,89.00
2019-05-02T04:17:59.127Z,88.80
2019-05-02T04:21:03.555Z,89.00
2019-05-02T04:24:13.307Z,89.60
2019-05-02T04:27:14.158Z,89.90
2019-05-02T04:30:18.438Z,90.00
2019-05-02T04:33:29.128Z,90.10
2019-05-02T04:36:29.568Z,90.20
2019-05-02T04:39:33.963Z,90.20
2019-05-02T04:42:39.334Z,90.40
2019-05-02T04:45:52.839Z,90.20
2019-05-02T04:48:52.842Z,90.20
2019-05-02T04:52:04.463Z,90.20
2019-05-02T04:55:14.511Z,90.20
2019-05-02T04:58:08.482Z,90.00
2019-05-02T05:01:13.066Z,90.00
2019-05-02T05:04:18.019Z,90.10
2019-05-02T05:07:22.620Z,90.00
2019-05-02T05:10:27.716Z,90.70
2019-05-02T05:13:32.246Z,90.20
2019-05-02T05:16:37.317Z,90.20
2019-05-02T05:19:42.716Z,90.30
2019-05-02T05:22:47.873Z,90.20
2019-05-02T05:26:03.534Z,90.30
2019-05-02T05:29:04.249Z,90.30
2019-05-02T05:32:10.143Z,90.30
2019-05-02T05:35:14.820Z,90.40
2019-05-02T05:38:23.086Z,90.30
2019-05-02T05:41:27.565Z,91.20
2019-05-02T05:44:32.852Z,91.10
2019-05-02T05:47:37.855Z,90.90
2019-05-02T05:50:42.521Z,90.70
2019-05-02T05:53:47.889Z,90.80
2019-05-02T05:56:53.402Z,90.60
2019-05-02T05:59:58.499Z,90.50
2019-05-02T06:03:11.534Z,90.40
2019-05-02T06:06:10.276Z,90.20
2019-05-02T06:09:16.135Z,89.60
2019-05-02T06:12:20.648Z,89.30
2019-05-02T06:15:25.197Z,89.10
2019-05-02T06:18:29.893Z,88.70
2019-05-02T06:21:34.407Z,88.50
2019-05-02T06:24:38.859Z,88.40
2019-05-02T06:27:43.255Z,88.00
2019-05-02T06:30:47.769Z,87.90
2019-05-02T06:33:52.482Z,87.40
2019-05-02T06:36:58.423Z,86.90
2019-05-02T06:40:03.179Z,86.50
2019-05-02T06:43:09.855Z,86.20
2019-05-02T06:46:16.546Z,85.90
2019-05-02T06:49:24.879Z,85.90
2019-05-02T06:52:32.844Z,85.60
2019-05-02T06:55:36.515Z,85.40
2019-05-02T06:58:43.219Z,84.90
2019-05-02T07:01:52.249Z,84.80
2019-05-02T07:04:54.954Z,84.60
2019-05-02T07:08:00.399Z,84.50
2019-05-02T07:11:05.417Z,83.90
2019-05-02T07:14:13.347Z,83.40
2019-05-02T07:17:38.165Z,81.70
2019-05-02T07:20:42.533Z,80.60
2019-05-02T07:23:48.746Z,79.70
2019-05-02T07:26:56.949Z,79.40
2019-05-02T07:29:59.862Z,79.50
2019-05-02T07:33:04.459Z,79.30
2019-05-02T07:36:09.049Z,79.20
2019-05-02T07:39:13.542Z,78.80
2019-05-02T07:42:18.053Z,77.80
2019-05-02T07:45:22.597Z,77.90
2019-05-02T07:48:27.030Z,79.40
2019-05-02T07:51:31.771Z,78.80
2019-05-02T07:54:36.314Z,78.60
2019-05-02T07:57:40.903Z,78.40
2019-05-02T08:00:45.575Z,78.40
2019-05-02T08:03:50.172Z,78.60
2019-05-02T08:06:54.872Z,77.40
2019-05-02T08:09:59.521Z,76.70
2019-05-02T08:13:07.170Z,74.70
2019-05-02T08:16:11.712Z,73.90
2019-05-02T08:19:16.375Z,73.40
2019-05-02T08:22:20.917Z,74.50
2019-05-02T08:25:25.324Z,73.70
2019-05-02T08:28:46.990Z,73.30
2019-05-02T08:31:50.807Z,71.90
2019-05-02T08:34:55.378Z,73.20
2019-05-02T08:37:59.926Z,72.60
2019-05-02T08:41:04.815Z,70.50
2019-05-02T08:44:09.115Z,69.50
2019-05-02T08:47:19.159Z,68.90
2019-05-02T08:50:19.615Z,70.10
2019-05-02T08:53:24.025Z,69.60
2019-05-02T08:56:28.401Z,66.20
2019-05-02T08:59:32.834Z,64.60
2019-05-02T09:02:41.729Z,65.60
2019-05-02T09:05:46.019Z,64.80
2019-05-02T09:08:51.396Z,65.00
2019-05-02T09:12:08.715Z,66.10
2019-05-02T09:15:03.432Z,64.30
2019-05-02T09:18:07.989Z,65.20
2019-05-02T09:21:12.604Z,64.60
2019-05-02T09:24:21.092Z,64.70
2019-05-02T09:27:23.719Z,60.30
2019-05-02T09:30:28.301Z,61.10
2019-05-02T09:33:36.875Z,61.20
2019-05-02T09:36:38.844Z,59.20
2019-05-02T09:39:45.359Z,58.30
2019-05-02T09:42:53.571Z,58.70
2019-05-02T09:45:57.747Z,59.90
2019-05-02T09:49:09.425Z,58.80
2019-05-02T09:52:08.384Z,59.40
2019-05-02T09:55:14.913Z,57.50
2019-05-02T09:58:21.480Z,59.20
2019-05-02T10:01:35.636Z,58.70
2019-05-02T10:04:43.481Z,55.70
2019-05-02T10:07:49.152Z,55.50
2019-05-02T10:10:53.786Z,57.70
2019-05-02T10:13:58.447Z,56.30
2019-05-02T10:17:06.939Z,56.50
2019-05-02T10:20:09.388Z,56.90
2019-05-02T10:23:19.462Z,57.80
2019-05-02T10:26:24.166Z,56.50
2019-05-02T10:29:28.413Z,57.40
2019-05-02T10:32:32.526Z,57.10
2019-05-02T10:35:41.420Z,57.50
2019-05-02T10:38:49.023Z,57.70
2019-05-02T10:41:52.848Z,56.60
2019-05-02T10:44:57.438Z,57.20
2019-05-02T10:48:02.351Z,57.40
2019-05-02T10:51:34.451Z,57.40
2019-05-02T10:54:38.962Z,57.00
2019-05-02T10:57:43.394Z,55.50
2019-05-02T11:00:47.980Z,56.00
2019-05-02T11:03:53.284Z,56.90
2019-05-02T11:06:57.907Z,55.70
2019-05-02T11:10:06.531Z,56.00
2019-05-02T11:13:42.670Z,55.70
2019-05-02T11:17:13.985Z,55.10
2019-05-02T11:20:18.640Z,55.00
2019-05-02T11:23:23.091Z,54.70
2019-05-02T11:26:27.422Z,53.70
2019-05-02T11:29:32.297Z,54.20
2019-05-02T11:32:36.697Z,53.90
2019-05-02T11:35:48.766Z,53.90
2019-05-02T11:38:54.210Z,54.00
2019-05-02T11:41:53.344Z,53.60
2019-05-02T11:44:57.797Z,51.90
2019-05-02T11:48:09.354Z,51.60
2019-05-02T11:51:12.713Z,51.00
2019-05-02T11:54:14.356Z,49.80
2019-05-02T11:57:22.726Z,49.50
2019-05-02T12:00:25.130Z,49.10
2019-05-02T12:03:36.925Z,48.80
2019-05-02T12:06:42.247Z,50.60
2019-05-02T12:09:55.465Z,52.00
2019-05-02T12:12:53.320Z,51.10
2019-05-02T12:15:57.705Z,47.60
2019-05-02T12:19:09.565Z,50.50
2019-05-02T12:22:12.952Z,49.00
2019-05-02T12:25:15.242Z,48.20
2019-05-02T12:28:19.849Z,49.20
2019-05-02T12:31:29.041Z,50.60
2019-05-02T12:34:33.707Z,48.40
2019-05-02T12:37:38.214Z,47.60
2019-05-02T12:40:44.194Z,46.80
2019-05-02T12:43:48.749Z,46.00
2019-05-02T12:46:53.144Z,47.10
2019-05-02T12:49:57.556Z,45.90
2019-05-02T12:53:02.965Z,46.40
2019-05-02T12:56:07.616Z,46.60
2019-05-02T12:59:12.035Z,47.50
2019-05-02T13:02:25.334Z,46.20
2019-05-02T13:05:33.697Z,46.90
2019-05-02T13:08:52.533Z,45.90
2019-05-02T13:12:10.811Z,45.60
2019-05-02T13:15:15.808Z,45.10
2019-05-02T13:18:23.270Z,44.20
2019-05-02T13:21:40.090Z,45.50
2019-05-02T13:24:47.079Z,45.80
2019-05-02T13:27:49.419Z,45.30
2019-05-02T13:31:02.351Z,45.10
2019-05-02T13:34:14.825Z,46.90
2019-05-02T13:37:22.418Z,46.40
2019-05-02T13:40:37.062Z,45.70
2019-05-02T13:43:46.264Z,44.50
2019-05-02T13:46:53.591Z,45.40
2019-05-02T13:50:01.669Z,46.90
2019-05-02T13:53:08.391Z,46.80
2019-05-02T13:56:47.186Z,47.70
2019-05-02T13:59:52.514Z,48.30
2019-05-02T14:02:57.236Z,49.40
2019-05-02T14:06:02.934Z,48.40
2019-05-02T14:09:27.920Z,47.50
2019-05-02T14:12:49.324Z,48.50
2019-05-02T14:15:55.237Z,48.70
2019-05-02T14:18:59.736Z,48.80
2019-05-02T14:22:04.735Z,45.70
2019-05-02T14:25:09.838Z,47.20
2019-05-02T14:28:14.426Z,48.00
2019-05-02T14:31:21.689Z,44.70
2019-05-02T14:34:45.286Z,45.70
2019-05-02T14:38:08.595Z,45.90
2019-05-02T14:41:15.067Z,45.90
2019-05-02T14:44:23.304Z,46.00
2019-05-02T14:47:26.407Z,45.90
2019-05-02T14:50:32.032Z,43.50
2019-05-02T14:53:36.681Z,44.10
2019-05-02T14:57:01.948Z,45.80
2019-05-02T15:00:08.552Z,42.10
2019-05-02T15:03:13.163Z,41.90
2019-05-02T15:06:17.767Z,42.40
2019-05-02T15:09:26.562Z,42.60
2019-05-02T15:12:28.712Z,41.70
2019-05-02T15:15:38.697Z,44.00
2019-05-02T15:18:39.598Z,41.00
2019-05-02T15:21:46.984Z,41.40
2019-05-02T15:24:56.411Z,41.00
2019-05-02T15:28:02.431Z,42.60
2019-05-02T15:31:11.833Z,42.70
2019-05-02T15:34:26.134Z,43.80
2019-05-02T15:37:32.219Z,43.70
2019-05-02T15:40:47.166Z,44.10
2019-05-02T15:43:44.538Z,44.20
2019-05-02T15:46:52.299Z,43.50
2019-05-02T15:49:56.349Z,43.20
2019-05-02T15:53:09.990Z,42.50
2019-05-02T15:56:19.722Z,41.90
2019-05-02T15:59:20.185Z,41.70
2019-05-02T16:02:26.757Z,42.10
2019-05-02T16:05:32.048Z,42.60
2019-05-02T16:08:38.110Z,42.70
2019-05-02T16:11:43.451Z,42.70
2019-05-02T16:14:48.035Z,43.30
2019-05-02T16:17:56.786Z,43.50
2019-05-02T16:21:07.619Z,43.80
2019-05-02T16:24:23.531Z,44.30
2019-05-02T16:27:46.873Z,45.10
2019-05-02T16:30:53.337Z,44.70
2019-05-02T16:33:57.803Z,45.30
2019-05-02T16:37:16.380Z,45.70
2019-05-02T16:40:22.040Z,45.90
2019-05-02T16:43:27.335Z,45.80
2019-05-02T16:46:32.300Z,46.20
2019-05-02T16:49:36.895Z,46.60
2019-05-02T16:52:45.536Z,46.90
2019-05-02T16:55:47.449Z,47.30
2019-05-02T16:58:52.234Z,47.50
2019-05-02T17:01:59.514Z,48.00
2019-05-02T17:05:08.230Z,48.30
2019-05-02T17:08:20.211Z,48.60
2019-05-02T17:11:35.852Z,48.90
2019-05-02T17:14:47.512Z,49.40
2019-05-02T17:17:47.793Z,49.50
2019-05-02T17:20:56.365Z,49.60
2019-05-02T17:23:58.364Z,49.90
2019-05-02T17:27:03.220Z,50.00
2019-05-02T17:30:08.124Z,50.30
2019-05-02T17:33:16.019Z,50.70
2019-05-02T17:36:23.380Z,51.00
2019-05-02T17:39:26.170Z,51.20
2019-05-02T17:42:32.373Z,51.70
2019-05-02T17:45:38.504Z,52.00
2019-05-02T17:48:47.717Z,52.40
2019-05-02T17:52:32.521Z,52.80
2019-05-02T17:55:40.523Z,53.50
2019-05-02T17:58:47.379Z,54.20
2019-05-02T18:01:52.435Z,55.10
2019-05-02T18:04:57.320Z,55.50
2019-05-02T18:08:05.936Z,56.00
2019-05-02T18:11:08.095Z,56.40
2019-05-02T18:14:19.513Z,56.80
2019-05-02T18:17:21.916Z,57.40
2019-05-02T18:20:26.755Z,57.70
2019-05-02T18:23:32.260Z,58.40
2019-05-02T18:26:36.913Z,58.40
2019-05-02T18:29:45.390Z,58.60
2019-05-02T18:32:47.918Z,58.90
2019-05-02T18:35:54.009Z,59.20
2019-05-02T18:39:00.515Z,59.40
2019-05-02T18:42:08.497Z,60.00
2019-05-02T18:45:18.295Z,60.50
2019-05-02T18:48:26.045Z,60.90
2019-05-02T18:51:32.103Z,61.50
2019-05-02T18:54:38.657Z,61.70
2019-05-02T18:57:43.214Z,62.00
2019-05-02T19:00:51.932Z,62.80
2019-05-02T19:03:56.293Z,62.20
2019-05-02T19:07:02.692Z,63.30
2019-05-02T19:10:07.482Z,64.00
2019-05-02T19:13:12.857Z,64.40
2019-05-02T19:16:19.331Z,65.00
2019-05-02T19:19:27.428Z,65.60
2019-05-02T19:22:32.063Z,65.90
2019-05-02T19:25:36.216Z,66.40
2019-05-02T19:29:13.213Z,66.80
2019-05-02T19:32:17.560Z,66.90
2019-05-02T19:35:21.896Z,67.40
2019-05-02T19:38:27.311Z,67.60
2019-05-02T19:41:32.342Z,67.60
2019-05-02T19:44:36.925Z,67.60
2019-05-02T19:47:42.141Z,67.80
2019-05-02T19:50:46.991Z,68.10
2019-05-02T19:53:59.197Z,68.30
2019-05-02T19:56:57.783Z,68.70
2019-05-02T20:00:06.380Z,68.70
2019-05-02T20:03:13.003Z,69.00
2019-05-02T20:06:15.100Z,69.30
2019-05-02T20:09:19.905Z,69.70
2019-05-02T20:12:24.838Z,70.00
2019-05-02T20:15:32.752Z,70.40
2019-05-02T20:18:42.521Z,70.70
2019-05-02T20:22:06.745Z,70.90
2019-05-02T20:25:12.509Z,70.90
2019-05-02T20:28:17.435Z,71.30
2019-05-02T20:31:22.357Z,71.50
2019-05-02T20:34:27.514Z,71.60
2019-05-02T20:37:32.535Z,71.70
2019-05-02T20:40:37.535Z,71.70
2019-05-02T20:43:44.784Z,71.70
2019-05-02T20:46:51.573Z,71.90
2019-05-02T20:49:56.194Z,72.10
2019-05-02T20:53:01.981Z,73.10
2019-05-02T20:56:06.434Z,72.50
2019-05-02T20:59:13.960Z,72.70
2019-05-02T21:02:18.362Z,72.70
2019-05-02T21:05:26.924Z,73.00
2019-05-02T21:08:48.688Z,73.10
2019-05-02T21:12:01.881Z,73.40
2019-05-02T21:15:06.963Z,73.70
2019-05-02T21:18:11.750Z,73.90
2019-05-02T21:21:17.204Z,74.10
2019-05-02T21:24:22.077Z,74.30
2019-05-02T21:27:26.711Z,74.60
2019-05-02T21:30:32.241Z,74.90
2019-05-02T21:33:42.508Z,74.80
2019-05-02T21:36:48.253Z,75.60
2019-05-02T21:39:52.718Z,75.20
2019-05-02T21:42:58.350Z,75.00
2019-05-02T21:46:02.759Z,75.00
2019-05-02T21:49:07.297Z,75.20
2019-05-02T21:52:33.679Z,75.40
2019-05-02T21:55:45.013Z,75.60
2019-05-02T21:59:09.289Z,75.70
2019-05-02T22:02:14.414Z,75.90
2019-05-02T22:05:18.802Z,76.00
2019-05-02T22:08:23.219Z,76.70
2019-05-02T22:11:27.651Z,76.50
2019-05-02T22:14:33.556Z,76.70
2019-05-02T22:17:37.992Z,76.80
2019-05-02T22:20:42.792Z,76.70
2019-05-02T22:23:51.920Z,77.10
2019-05-02T22:26:56.112Z,77.00
2019-05-02T22:30:02.117Z,77.10
2019-05-02T22:33:06.746Z,77.50
2019-05-02T22:36:12.362Z,77.50
2019-05-02T22:39:37.393Z,77.60
2019-05-02T22:42:41.801Z,77.80
2019-05-02T22:45:46.212Z,77.80
2019-05-02T22:48:51.831Z,77.70
2019-05-02T22:51:56.291Z,77.90
2019-05-02T22:55:02.864Z,78.10
2019-05-02T22:58:06.733Z,78.10
2019-05-02T23:01:11.095Z,78.20
2019-05-02T23:04:15.582Z,78.10
2019-05-02T23:07:22.056Z,78.40
2019-05-02T23:10:26.048Z,78.30
2019-05-02T23:13:31.883Z,78.20
2019-05-02T23:16:36.882Z,78.10
2019-05-02T23:19:42.347Z,78.50
2019-05-02T23:22:46.849Z,78.40
2019-05-02T23:26:05.330Z,78.30
2019-05-02T23:29:12.396Z,78.20
2019-05-02T23:32:16.676Z,78.30
2019-05-02T23:35:21.122Z,78.40
2019-05-02T23:38:25.544Z,78.20
2019-05-02T23:41:29.947Z,78.30
2019-05-02T23:44:34.300Z,78.30
2019-05-02T23:47:38.686Z,78.40
2019-05-02T23:50:43.381Z,78.40
2019-05-02T23:53:47.775Z,78.60
2019-05-02T23:56:52.108Z,78.80
2019-05-02T23:59:56.417Z,78.90
